createdAt,value
2022-09-07T00:04:59.663Z,0.3
2022-09-07T00:09:57.773Z,0.2
2022-09-07T00:14:57.432Z,0.3
2022-09-07T00:19:56.847Z,0.3
2022-09-07T00:24:56.297Z,0.3
2022-09-07T00:29:56.764Z,0.3
2022-09-07T00:34:53.940Z,0.3
2022-09-07T00:39:54.445Z,0.2
2022-09-07T00:44:53.968Z,0.3
2022-09-07T00:49:53.366Z,0.3
2022-09-07T00:54:52.141Z,0.3
2022-09-07T00:58:53.603Z,0.3
2022-09-07T01:03:53.574Z,0.3
2022-09-07T01:08:53.974Z,0.3
2022-09-07T01:13:53.048Z,0.3
2022-09-07T01:18:50.937Z,0.3
2022-09-07T01:23:51.413Z,0.3
2022-09-07T01:28:52.162Z,0.3
2022-09-07T01:33:50.761Z,0.3
2022-09-07T01:38:50.032Z,0.3
2022-09-07T01:43:49.581Z,0.3
2022-09-07T01:48:49.689Z,0.3
2022-09-07T01:53:49.028Z,0.3
2022-09-07T01:58:47.593Z,0.3
2022-09-07T02:03:46.996Z,0.3
2022-09-07T02:08:46.999Z,0.3
2022-09-07T02:13:45.871Z,0.3
2022-09-07T02:18:46.639Z,0.3
2022-09-07T02:23:43.666Z,0.3
2022-09-07T02:28:43.778Z,0.3
2022-09-07T02:33:43.352Z,0.3
2022-09-07T02:38:43.649Z,0.3
2022-09-07T02:43:42.529Z,0.3
2022-09-07T02:48:42.022Z,0.3
2022-09-07T02:53:41.171Z,0.3
2022-09-07T02:58:41.239Z,0.3
2022-09-07T03:00:10.185Z,0.3
2022-09-07T03:05:02.989Z,0.3
2022-09-07T03:10:33.004Z,0.2
2022-09-07T03:15:01.241Z,0.3
2022-09-07T03:20:01.035Z,0.3
2022-09-07T03:25:00.661Z,0.3
2022-09-07T03:29:59.710Z,0.3
2022-09-07T03:35:00.183Z,0.3
2022-09-07T03:39:57.485Z,0.2
2022-09-07T03:44:57.109Z,0.3
2022-09-07T03:49:56.882Z,0.3
2022-09-07T03:54:56.424Z,0.3
2022-09-07T03:58:56.780Z,0.3
2022-09-07T04:04:03.382Z,0.2
2022-09-07T04:08:55.724Z,0.3
2022-09-07T04:13:56.115Z,0.3
2022-09-07T04:18:55.890Z,0.3
2022-09-07T04:23:55.975Z,0.3
2022-09-07T04:28:54.820Z,0.3
2022-09-07T04:33:54.816Z,0.4
2022-09-07T04:38:54.156Z,0.7
2022-09-07T04:43:52.839Z,1.2
2022-09-07T04:48:51.857Z,1.9
2022-09-07T04:53:52.266Z,2.9
2022-09-07T04:58:51.005Z,4.1
2022-09-07T05:03:50.709Z,4.8
2022-09-07T05:08:49.939Z,6.5
2022-09-07T05:13:50.310Z,8.2
2022-09-07T05:18:49.860Z,9.7
2022-09-07T05:23:48.102Z,11.4
2022-09-07T05:28:47.522Z,13.1
2022-09-07T05:34:33.526Z,15
2022-09-07T05:38:46.608Z,16.8
2022-09-07T05:44:46.429Z,18.5
2022-09-07T05:48:44.058Z,20.4
2022-09-07T05:53:44.090Z,21.9
2022-09-07T05:58:43.405Z,25.2
2022-09-07T06:00:06.082Z,26.4
2022-09-07T06:05:04.514Z,29.9
2022-09-07T06:10:46.819Z,29.2
2022-09-07T06:15:02.966Z,31.4
2022-09-07T06:20:02.705Z,30.8
2022-09-07T06:25:01.804Z,39
2022-09-07T06:30:00.805Z,34.4
2022-09-07T06:35:01.050Z,28.6
2022-09-07T06:40:02.884Z,42.9
2022-09-07T06:44:59.430Z,33.9
2022-09-07T06:49:59.127Z,48.6
2022-09-07T06:54:59.451Z,51.7
2022-09-07T06:59:20.110Z,54.1
2022-09-07T07:04:17.649Z,57.1
2022-09-07T07:09:17.947Z,225.9
2022-09-07T07:14:17.179Z,277.8
2022-09-07T07:19:18.232Z,301
2022-09-07T07:24:15.423Z,325.6
2022-09-07T07:29:20.022Z,344.4
2022-09-07T07:34:16.211Z,340.1
2022-09-07T07:40:17.983Z,372.3
2022-09-07T07:44:13.932Z,390.3
2022-09-07T07:49:24.397Z,408.2
2022-09-07T07:54:23.883Z,420.6
2022-09-07T07:59:03.828Z,433.6
2022-09-07T08:04:01.180Z,443.1
2022-09-07T08:09:21.571Z,459.1
2022-09-07T08:14:01.352Z,470.7
2022-09-07T08:19:00.634Z,509.6
2022-09-07T08:23:58.984Z,492.8
2022-09-07T08:28:58.266Z,505.6
2022-09-07T08:33:58.214Z,518.8
2022-09-07T08:38:59.362Z,529.6
2022-09-07T08:43:56.406Z,543.9
2022-09-07T08:48:56.587Z,555.8
2022-09-07T08:53:56.529Z,570.8
2022-09-07T08:58:56.076Z,581.3
2022-09-07T09:06:13.387Z,591.4
2022-09-07T09:08:54.710Z,598.6
2022-09-07T09:13:54.244Z,617.4
2022-09-07T09:18:54.332Z,626.3
2022-09-07T09:23:53.845Z,640.5
2022-09-07T09:28:52.723Z,650.6
2022-09-07T09:33:52.141Z,663.7
2022-09-07T09:38:52.412Z,671.2
2022-09-07T09:43:51.261Z,690
2022-09-07T09:48:52.285Z,639.8
2022-09-07T09:53:49.201Z,630.5
2022-09-07T10:00:02.950Z,659
2022-09-07T10:03:58.591Z,648
2022-09-07T10:08:47.487Z,724.1
2022-09-07T10:13:47.757Z,684.9
2022-09-07T10:18:47.178Z,705.7
2022-09-07T10:23:46.569Z,512.7
2022-09-07T10:29:10.101Z,730.4
2022-09-07T10:34:25.584Z,771
2022-09-07T10:38:44.574Z,548.6
2022-09-07T10:43:43.541Z,108.6
2022-09-07T10:48:44.310Z,773.3
2022-09-07T10:53:44.577Z,821.5
2022-09-07T10:59:04.590Z,151.4
2022-09-07T11:03:59.124Z,766.1
2022-09-07T11:08:29.810Z,390.6
2022-09-07T11:13:28.411Z,681.5
2022-09-07T11:18:27.957Z,822.4
2022-09-07T11:23:27.796Z,741.3
2022-09-07T11:28:25.537Z,239.7
2022-09-07T11:33:24.993Z,688
2022-09-07T11:38:24.496Z,568.9
2022-09-07T11:43:25.145Z,303.7
2022-09-07T11:48:22.902Z,339.3
2022-09-07T11:53:22.857Z,753.1
2022-09-07T11:58:22.994Z,771.3
2022-09-07T11:59:44.318Z,767.4
2022-09-07T12:04:44.418Z,772.4
2022-09-07T12:09:43.748Z,784.6
2022-09-07T12:14:44.326Z,780
2022-09-07T12:19:43.632Z,768.7
2022-09-07T12:24:43.221Z,692.2
2022-09-07T12:29:46.808Z,701.8
2022-09-07T12:34:42.598Z,631
2022-09-07T12:39:41.164Z,727.5
2022-09-07T12:44:42.013Z,697.9
2022-09-07T12:49:38.536Z,668.9
2022-09-07T12:54:38.318Z,721.8
2022-09-07T12:58:52.908Z,710.9
2022-09-07T13:03:53.486Z,695.7
2022-09-07T13:08:49.626Z,646.9
2022-09-07T13:14:13.360Z,463.6
2022-09-07T13:18:49.790Z,568.4
2022-09-07T13:23:49.368Z,490.5
2022-09-07T13:28:48.928Z,642.7
2022-09-07T13:33:48.958Z,615.9
2022-09-07T13:38:48.753Z,110.2
2022-09-07T13:43:47.975Z,135.6
2022-09-07T13:48:46.681Z,117.9
2022-09-07T13:53:45.972Z,104.3
2022-09-07T13:58:45.390Z,101.6
2022-09-07T14:03:44.483Z,134.6
2022-09-07T14:08:43.844Z,526.7
2022-09-07T14:13:41.820Z,237.5
2022-09-07T14:18:41.096Z,132.6
2022-09-07T14:23:40.951Z,104.7
2022-09-07T14:28:39.721Z,250.7
2022-09-07T14:33:47.705Z,165.2
2022-09-07T14:39:06.536Z,160.8
2022-09-07T14:43:38.207Z,345.4
2022-09-07T14:48:40.380Z,177.9
2022-09-07T14:53:37.875Z,294
2022-09-07T14:58:34.934Z,231
2022-09-07T14:59:55.954Z,218
2022-09-07T15:04:56.092Z,274.1
2022-09-07T15:09:56.347Z,415.4
2022-09-07T15:14:54.031Z,136.6
2022-09-07T15:19:54.333Z,217.4
2022-09-07T15:24:53.386Z,72.8
2022-09-07T15:29:53.747Z,58.3
2022-09-07T15:34:50.026Z,55.7
2022-09-07T15:39:49.632Z,52.3
2022-09-07T15:44:52.073Z,40.5
2022-09-07T15:49:54.873Z,30.5
2022-09-07T15:54:47.331Z,28.4
2022-09-07T15:58:49.045Z,28.3
2022-09-07T16:03:50.864Z,26
2022-09-07T16:08:52.405Z,16.3
2022-09-07T16:13:49.230Z,12.7
2022-09-07T16:18:48.567Z,20.5
2022-09-07T16:23:46.175Z,33.5
2022-09-07T16:28:45.981Z,40.3
2022-09-07T16:33:45.586Z,45.8
2022-09-07T16:38:47.063Z,41.9
2022-09-07T16:43:44.019Z,20.8
2022-09-07T16:48:44.710Z,18
2022-09-07T16:53:43.752Z,16.3
2022-09-07T16:58:42.558Z,19.2
2022-09-07T17:03:42.626Z,20.3
2022-09-07T17:08:40.545Z,22.8
2022-09-07T17:13:39.587Z,18.5
2022-09-07T17:19:33.395Z,14.9
2022-09-07T17:23:56.198Z,9
2022-09-07T17:28:39.119Z,5.4
2022-09-07T17:33:38.216Z,4.1
2022-09-07T17:39:18.714Z,2.2
2022-09-07T17:43:46.463Z,1.4
2022-09-07T17:48:37.553Z,0.8
2022-09-07T17:53:37.008Z,0.5
2022-09-07T17:58:35.413Z,0.5
2022-09-07T18:00:14.080Z,0.5
2022-09-07T18:04:56.496Z,0.4
2022-09-07T18:09:55.014Z,0.3
2022-09-07T18:14:56.024Z,0.3
2022-09-07T18:19:53.386Z,0.3
2022-09-07T18:24:53.199Z,0.3
2022-09-07T18:29:52.443Z,0.3
2022-09-07T18:34:52.929Z,0.3
2022-09-07T18:39:49.716Z,0.2
2022-09-07T18:45:30.255Z,0.3
2022-09-07T18:49:48.945Z,0.3
2022-09-07T18:54:48.459Z,0.3
2022-09-07T18:59:19.029Z,0.2
2022-09-07T19:04:18.605Z,0.3
2022-09-07T19:09:18.122Z,0.3
2022-09-07T19:14:07.474Z,0.3
2022-09-07T19:19:06.861Z,0.3
2022-09-07T19:24:06.354Z,0.3
2022-09-07T19:29:05.707Z,0.3
2022-09-07T19:34:04.953Z,0.3
2022-09-07T19:39:03.456Z,0.3
2022-09-07T19:44:02.943Z,0.3
2022-09-07T19:49:02.926Z,0.3
2022-09-07T19:54:02.306Z,0.3
2022-09-07T19:58:59.710Z,0.3
2022-09-07T20:03:57.004Z,0.3
2022-09-07T20:08:56.085Z,0.3
2022-09-07T20:13:56.365Z,0.3
2022-09-07T20:18:58.296Z,0.3
2022-09-07T20:23:55.568Z,0.3
2022-09-07T20:29:29.389Z,0.3
2022-09-07T20:33:54.871Z,0.3
2022-09-07T20:38:53.171Z,0.3
2022-09-07T20:43:52.415Z,0.3
2022-09-07T20:48:52.710Z,0.3
2022-09-07T20:53:52.278Z,0.3
2022-09-07T20:58:39.049Z,0.3
2022-09-07T21:03:36.513Z,0.3
2022-09-07T21:08:36.008Z,0.3
2022-09-07T21:13:36.212Z,0.3
2022-09-07T21:18:35.726Z,0.3
2022-09-07T21:23:35.230Z,0.3
2022-09-07T21:28:34.022Z,0.3
2022-09-07T21:33:34.331Z,0.3
2022-09-07T21:38:34.137Z,0.3
2022-09-07T21:43:33.855Z,0.3
2022-09-07T21:48:32.406Z,0.3
2022-09-07T21:53:31.819Z,0.3
2022-09-07T21:58:17.186Z,0.3
2022-09-07T22:03:16.631Z,0.3
2022-09-07T22:08:14.772Z,0.3
2022-09-07T22:13:14.918Z,0.3
2022-09-07T22:18:14.345Z,0.3
2022-09-07T22:23:24.484Z,0.3
2022-09-07T22:28:22.684Z,0.3
2022-09-07T22:33:22.752Z,0.3
2022-09-07T22:38:22.877Z,0.3
2022-09-07T22:43:20.329Z,0.3
2022-09-07T22:48:20.418Z,0.3
2022-09-07T22:53:20.381Z,0.3
2022-09-07T22:58:21.338Z,0.3
2022-09-07T22:59:42.774Z,0.3
2022-09-07T23:04:43.292Z,0.3
2022-09-07T23:09:41.756Z,0.2
2022-09-07T23:14:41.485Z,0.3
2022-09-07T23:19:39.144Z,0.3
2022-09-07T23:24:38.832Z,0.3
2022-09-07T23:29:38.578Z,0.2
2022-09-07T23:34:38.683Z,0.3
2022-09-07T23:39:37.055Z,0.3
2022-09-07T23:44:36.810Z,0.3
2022-09-07T23:49:36.837Z,0.3
2022-09-07T23:54:36.307Z,0.3
2022-09-07T23:59:18.009Z,0.2
